ENRA/MQN METAR and TAF weather

Enter ICAO airport designator
Station Type Date Time Source
ENRA METAR 2022/07/01 01:50 UTC NOAA

ENRA 010150Z AUTO VRB03KT 9999 NCD 17/13 Q1018


Station Type Date Time Source
ENRA Decoded METAR 2022/07/01 01:50 UTC NOAA

Mo I Rana / Rossvoll, Norway (ENRA) 66-22N 014-18E 70M
Jun 30, 2022 - 09:50 PM EDT / 2022.07.01 0150 UTC
Wind: Variable at 3 MPH (3 KT):0
Visibility: greater than 7 mile(s):0
Temperature: 62 F (17 C)
Dew Point: 55 F (13 C)
Relative Humidity: 77%
Pressure (altimeter): 30.06 in. Hg (1018 hPa)
ob: ENRA 010150Z AUTO VRB03KT 9999 NCD 17/13 Q1018
cycle: 2

Station Type Date Time Source
ENRA TAF UTC NOAA

Error!

Example: see airport list